createdAt,value
2018-11-23T00:00:17.353Z,22.47
2018-11-23T00:02:46.798Z,23.45
2018-11-23T00:05:15.220Z,22.30
2018-11-23T00:07:43.842Z,23.03
2018-11-23T00:10:16.694Z,22.03
2018-11-23T00:12:45.063Z,22.57
2018-11-23T00:15:14.383Z,22.13
2018-11-23T00:17:42.845Z,22.87
2018-11-23T00:20:13.488Z,24.20
2018-11-23T00:22:41.610Z,24.52
2018-11-23T00:25:11.082Z,23.27
2018-11-23T00:27:40.085Z,23.18
2018-11-23T00:30:11.157Z,23.75
2018-11-23T00:32:39.510Z,23.25
2018-11-23T00:35:09.287Z,21.93
2018-11-23T00:37:37.430Z,21.37
2018-11-23T00:40:06.394Z,20.47
2018-11-23T00:42:34.294Z,20.52
2018-11-23T00:45:02.846Z,21.25
2018-11-23T00:47:30.749Z,22.22
2018-11-23T00:49:59.438Z,22.02
2018-11-23T00:52:27.433Z,24.23
2018-11-23T00:54:55.656Z,23.00
2018-11-23T00:57:23.805Z,22.48
2018-11-23T00:59:52.115Z,20.57
2018-11-23T01:02:20.258Z,18.87
2018-11-23T01:04:48.409Z,20.30
2018-11-23T01:07:16.542Z,20.43
2018-11-23T01:09:44.695Z,21.63
2018-11-23T01:12:12.851Z,20.85
2018-11-23T01:14:40.767Z,18.55
2018-11-23T01:17:08.954Z,19.45
2018-11-23T01:19:36.897Z,20.25
2018-11-23T01:22:05.112Z,20.27
2018-11-23T01:24:33.335Z,20.20
2018-11-23T01:27:01.250Z,22.77
2018-11-23T01:29:29.701Z,23.20
2018-11-23T01:31:57.857Z,20.60
2018-11-23T01:34:26.211Z,19.73
2018-11-23T01:36:54.443Z,21.40
2018-11-23T01:39:22.575Z,22.42
2018-11-23T01:41:50.481Z,23.50
2018-11-23T01:44:18.651Z,23.42
2018-11-23T01:46:47.174Z,24.05
2018-11-23T01:49:15.081Z,23.27
2018-11-23T01:51:43.017Z,22.30
2018-11-23T01:54:11.409Z,23.15
2018-11-23T01:56:39.895Z,22.17
2018-11-23T01:59:07.805Z,22.35
2018-11-23T02:01:36.003Z,21.80
2018-11-23T02:04:04.085Z,21.27
2018-11-23T02:06:32.223Z,21.55
2018-11-23T02:09:00.330Z,20.68
2018-11-23T02:11:28.531Z,20.97
2018-11-23T02:13:56.703Z,21.02
2018-11-23T02:16:24.608Z,22.73
2018-11-23T02:18:52.953Z,21.17
2018-11-23T02:21:21.320Z,23.15
2018-11-23T02:23:49.678Z,23.75
2018-11-23T02:26:17.774Z,21.62
2018-11-23T02:28:45.739Z,22.87
2018-11-23T02:31:13.871Z,22.05
2018-11-23T02:33:42.195Z,21.17
2018-11-23T02:36:11.074Z,20.80
2018-11-23T02:38:39.278Z,27.58
2018-11-23T02:41:07.619Z,25.35
2018-11-23T02:43:35.797Z,24.82
2018-11-23T02:46:04.188Z,24.70
2018-11-23T02:48:32.338Z,26.25
2018-11-23T02:51:00.483Z,25.37
2018-11-23T02:53:28.747Z,26.12
2018-11-23T02:55:56.958Z,26.40
2018-11-23T02:58:25.141Z,27.93
2018-11-23T03:00:53.081Z,24.80
2018-11-23T03:03:21.239Z,25.95
2018-11-23T03:05:49.398Z,29.05
2018-11-23T03:08:17.675Z,25.30
2018-11-23T03:10:45.862Z,23.05
2018-11-23T03:13:13.807Z,23.32
2018-11-23T03:15:42.277Z,27.10
2018-11-23T03:18:10.207Z,22.62
2018-11-23T03:20:38.350Z,23.80
2018-11-23T03:23:06.603Z,20.43
2018-11-23T03:25:34.750Z,21.83
2018-11-23T03:28:03.116Z,22.20
2018-11-23T03:30:31.752Z,21.75
2018-11-23T03:32:59.682Z,22.00
2018-11-23T03:35:27.851Z,19.95
2018-11-23T03:37:56.025Z,20.23
2018-11-23T03:40:24.175Z,20.52
2018-11-23T03:42:52.359Z,21.10
2018-11-23T03:45:20.299Z,20.32
2018-11-23T03:47:48.667Z,22.27
2018-11-23T03:50:17.827Z,23.45
2018-11-23T03:52:46.044Z,22.70
2018-11-23T03:55:14.236Z,20.32
2018-11-23T03:57:42.402Z,19.70
2018-11-23T04:00:17.478Z,19.57
2018-11-23T04:02:42.343Z,21.93
2018-11-23T04:05:10.510Z,21.33
2018-11-23T04:07:38.452Z,20.43
2018-11-23T04:10:07.951Z,20.85
2018-11-23T04:12:36.219Z,19.50
2018-11-23T04:15:04.835Z,18.95
2018-11-23T04:17:32.756Z,20.72
2018-11-23T04:20:00.917Z,19.35
2018-11-23T04:22:29.378Z,20.20
2018-11-23T04:24:57.520Z,19.98
2018-11-23T04:27:25.484Z,21.17
2018-11-23T04:29:53.640Z,20.55
2018-11-23T04:32:21.798Z,21.93
2018-11-23T04:34:50.492Z,21.07
2018-11-23T04:37:18.664Z,22.07
2018-11-23T04:39:46.830Z,21.12
2018-11-23T04:42:14.982Z,20.23
2018-11-23T04:44:42.929Z,21.68
2018-11-23T04:47:11.018Z,21.15
2018-11-23T04:49:39.183Z,20.25
2018-11-23T04:52:07.341Z,20.30
2018-11-23T04:54:35.331Z,21.05
2018-11-23T04:57:03.928Z,20.88
2018-11-23T04:59:32.083Z,21.10
2018-11-23T05:02:00.219Z,23.47
2018-11-23T05:04:28.370Z,24.25
2018-11-23T05:06:56.470Z,25.00
2018-11-23T05:09:24.759Z,23.00
2018-11-23T05:11:52.914Z,24.37
2018-11-23T05:14:20.872Z,24.40
2018-11-23T05:16:48.894Z,24.10
2018-11-23T05:19:17.255Z,21.68
2018-11-23T05:21:45.284Z,23.52
2018-11-23T05:24:13.450Z,23.70
2018-11-23T05:26:41.860Z,24.27
2018-11-23T05:29:10.373Z,24.07
2018-11-23T05:31:38.951Z,23.67
2018-11-23T05:34:07.146Z,23.73
2018-11-23T05:36:35.310Z,24.72
2018-11-23T05:39:04.665Z,23.32
2018-11-23T05:41:33.088Z,22.48
2018-11-23T05:44:01.037Z,21.35
2018-11-23T05:46:28.950Z,22.25
2018-11-23T05:48:57.109Z,22.20
2018-11-23T05:51:25.267Z,23.20
2018-11-23T05:53:53.427Z,25.02
2018-11-23T05:56:21.583Z,23.85
2018-11-23T05:58:49.752Z,26.73
2018-11-23T06:01:18.037Z,23.55
2018-11-23T06:03:46.566Z,24.15
2018-11-23T06:06:14.750Z,24.67
2018-11-23T06:08:42.928Z,22.90
2018-11-23T06:11:11.071Z,22.50
2018-11-23T06:13:39.065Z,22.87
2018-11-23T06:16:07.177Z,21.00
2018-11-23T06:18:35.429Z,19.48
2018-11-23T06:21:03.835Z,20.20
2018-11-23T06:23:32.029Z,20.85
2018-11-23T06:26:19.684Z,19.77
2018-11-23T06:28:48.058Z,19.37
2018-11-23T06:31:16.294Z,21.57
2018-11-23T06:33:45.688Z,20.82
2018-11-23T06:36:13.894Z,21.25
2018-11-23T06:38:42.058Z,20.92
2018-11-23T06:41:10.856Z,20.60
2018-11-23T06:43:38.961Z,20.88
2018-11-23T06:46:08.082Z,20.65
2018-11-23T06:48:36.255Z,24.55
2018-11-23T06:51:04.666Z,32.20
2018-11-23T06:53:32.855Z,25.77
2018-11-23T06:56:01.246Z,26.45
2018-11-23T06:58:29.192Z,27.40
2018-11-23T07:00:57.334Z,25.82
2018-11-23T07:03:25.682Z,26.50
2018-11-23T07:05:53.884Z,25.57
2018-11-23T07:08:22.341Z,23.52
2018-11-23T07:10:50.713Z,25.52
2018-11-23T07:13:18.794Z,23.07
2018-11-23T07:15:46.714Z,24.25
2018-11-23T07:18:14.884Z,24.15
2018-11-23T07:20:42.874Z,23.38
2018-11-23T07:23:11.002Z,24.18
2018-11-23T07:25:39.003Z,23.38
2018-11-23T07:28:07.318Z,23.52
2018-11-23T07:30:35.562Z,21.15
2018-11-23T07:33:03.735Z,23.18
2018-11-23T07:35:31.906Z,22.13
2018-11-23T07:38:00.082Z,23.55
2018-11-23T07:40:41.350Z,23.38
2018-11-23T07:43:09.504Z,22.95
2018-11-23T07:45:37.658Z,23.10
2018-11-23T07:48:06.390Z,23.47
2018-11-23T07:50:34.834Z,22.13
2018-11-23T07:53:03.030Z,23.67
2018-11-23T07:55:31.022Z,25.20
2018-11-23T07:57:59.179Z,25.50
2018-11-23T08:00:27.991Z,25.48
2018-11-23T08:02:56.311Z,24.60
2018-11-23T08:05:24.552Z,25.68
2018-11-23T08:07:52.687Z,24.07
2018-11-23T08:10:20.272Z,24.60
2018-11-23T08:12:49.333Z,23.73
2018-11-23T08:15:20.631Z,24.20
2018-11-23T08:17:48.837Z,24.80
2018-11-23T08:20:18.239Z,23.97
2018-11-23T08:22:46.451Z,24.90
2018-11-23T08:25:15.714Z,25.07
2018-11-23T08:27:44.630Z,24.73
2018-11-23T08:30:17.300Z,24.00
2018-11-23T08:32:45.445Z,25.90
2018-11-23T08:35:13.823Z,26.77
2018-11-23T08:37:42.081Z,24.40
2018-11-23T08:40:14.811Z,25.77
2018-11-23T08:42:43.580Z,25.97
2018-11-23T08:45:13.039Z,27.43
2018-11-23T08:47:40.991Z,27.83
2018-11-23T08:50:09.876Z,28.30
2018-11-23T08:52:37.866Z,26.27
2018-11-23T08:55:05.987Z,26.67
2018-11-23T08:57:33.918Z,27.67
2018-11-23T09:00:02.180Z,28.87
2018-11-23T09:02:30.359Z,26.80
2018-11-23T09:04:58.652Z,26.50
2018-11-23T09:07:27.034Z,26.93
2018-11-23T09:09:55.179Z,27.90
2018-11-23T09:12:23.626Z,27.97
2018-11-23T09:14:51.834Z,26.77
2018-11-23T09:17:19.770Z,27.13
2018-11-23T09:19:48.059Z,27.23
2018-11-23T09:22:23.195Z,26.23
2018-11-23T09:24:44.643Z,27.63
2018-11-23T09:27:13.064Z,27.23
2018-11-23T09:29:41.287Z,26.63
2018-11-23T09:32:09.520Z,27.17
2018-11-23T09:34:37.669Z,26.00
2018-11-23T09:37:05.606Z,27.10
2018-11-23T09:39:33.755Z,24.73
2018-11-23T09:42:01.963Z,27.33
2018-11-23T09:44:30.247Z,26.53
2018-11-23T09:46:58.396Z,27.70
2018-11-23T09:49:26.528Z,26.77
2018-11-23T09:51:54.869Z,25.97
2018-11-23T09:54:23.144Z,25.80
2018-11-23T09:56:51.298Z,23.80
2018-11-23T09:59:19.464Z,24.53
2018-11-23T10:01:47.602Z,24.60
2018-11-23T10:04:15.823Z,24.60
2018-11-23T10:06:43.991Z,26.13
2018-11-23T10:09:12.309Z,26.07
2018-11-23T10:11:40.494Z,26.20
2018-11-23T10:14:08.659Z,25.10
2018-11-23T10:16:36.572Z,24.47
2018-11-23T10:19:06.408Z,24.80
2018-11-23T10:21:34.578Z,24.20
2018-11-23T10:24:02.734Z,24.70
2018-11-23T10:26:31.231Z,25.00
2018-11-23T10:28:59.596Z,24.77
2018-11-23T10:31:27.762Z,25.70
2018-11-23T10:33:56.074Z,23.47
2018-11-23T10:36:24.301Z,26.27
2018-11-23T10:38:52.480Z,26.43
2018-11-23T10:41:20.818Z,27.27
2018-11-23T10:43:49.366Z,25.10
2018-11-23T10:46:17.554Z,26.30
2018-11-23T10:48:46.083Z,25.67
2018-11-23T10:51:14.659Z,25.50
2018-11-23T10:53:42.863Z,24.87
2018-11-23T10:56:11.010Z,26.70
2018-11-23T10:58:39.127Z,25.13
2018-11-23T11:01:12.944Z,25.47
2018-11-23T11:04:44.505Z,25.67
2018-11-23T11:07:12.667Z,22.73
2018-11-23T11:09:41.396Z,22.33
2018-11-23T11:12:09.975Z,24.13
2018-11-23T11:14:38.164Z,24.50
2018-11-23T11:17:06.929Z,23.83
2018-11-23T11:19:35.486Z,23.40
2018-11-23T11:22:03.860Z,24.17
2018-11-23T11:24:32.040Z,21.77
2018-11-23T11:27:00.410Z,22.43
2018-11-23T11:29:28.762Z,23.27
2018-11-23T11:31:57.027Z,23.70
2018-11-23T11:34:25.261Z,22.60
2018-11-23T11:36:53.392Z,22.17
2018-11-23T11:39:21.759Z,24.00
2018-11-23T11:41:50.023Z,22.90
2018-11-23T11:44:18.207Z,22.07
2018-11-23T11:46:46.134Z,22.87
2018-11-23T11:49:14.429Z,21.53
2018-11-23T11:51:42.560Z,21.60
2018-11-23T11:54:10.695Z,21.60
2018-11-23T11:56:38.975Z,22.17
2018-11-23T11:59:07.133Z,22.67
2018-11-23T12:01:35.258Z,23.10
2018-11-23T12:04:03.164Z,23.63
2018-11-23T12:06:31.636Z,22.37
2018-11-23T12:08:59.832Z,22.80
2018-11-23T12:11:28.242Z,21.57
2018-11-23T12:13:56.398Z,22.70
2018-11-23T12:16:24.587Z,22.37
2018-11-23T12:18:52.767Z,22.63
2018-11-23T12:21:20.928Z,22.63
2018-11-23T12:23:49.352Z,23.07
2018-11-23T12:26:17.769Z,21.23
2018-11-23T12:28:45.669Z,21.40
2018-11-23T12:31:13.803Z,22.00
2018-11-23T12:33:41.810Z,22.07
2018-11-23T12:36:10.155Z,21.47
2018-11-23T12:38:43.014Z,23.83
2018-11-23T12:41:06.358Z,22.17
2018-11-23T12:43:34.501Z,22.30
2018-11-23T12:46:02.864Z,20.27
2018-11-23T12:48:31.051Z,21.73
2018-11-23T12:50:59.019Z,23.60
2018-11-23T12:53:27.175Z,22.50
2018-11-23T12:55:55.398Z,21.37
2018-11-23T12:58:23.786Z,22.20
2018-11-23T13:00:51.732Z,22.80
2018-11-23T13:03:19.891Z,22.43
2018-11-23T13:05:48.379Z,21.90
2018-11-23T13:08:16.746Z,21.80
2018-11-23T13:10:45.394Z,22.73
2018-11-23T13:13:13.614Z,22.17
2018-11-23T13:15:42.116Z,21.67
2018-11-23T13:18:10.431Z,20.83
2018-11-23T13:20:38.670Z,22.80
2018-11-23T13:23:07.096Z,22.13
2018-11-23T13:25:35.268Z,20.83
2018-11-23T13:28:03.843Z,21.83
2018-11-23T13:30:34.233Z,22.30
2018-11-23T13:33:02.903Z,22.10
2018-11-23T13:35:31.115Z,21.50
2018-11-23T13:37:59.262Z,21.80
2018-11-23T13:40:28.319Z,22.87
2018-11-23T13:42:57.616Z,20.13
2018-11-23T13:45:27.135Z,20.90
2018-11-23T13:47:55.085Z,22.23
2018-11-23T13:50:23.990Z,22.63
2018-11-23T13:52:53.796Z,21.50
2018-11-23T13:55:21.934Z,23.53
2018-11-23T13:57:50.315Z,22.60
2018-11-23T14:00:28.592Z,23.57
2018-11-23T14:02:56.958Z,22.27
2018-11-23T14:05:26.829Z,22.03
2018-11-23T14:07:57.679Z,22.67
2018-11-23T14:10:27.028Z,19.27
2018-11-23T14:12:55.195Z,19.03
2018-11-23T14:15:24.575Z,16.67
2018-11-23T14:17:53.845Z,16.33
2018-11-23T14:20:22.958Z,16.00
2018-11-23T14:22:50.910Z,16.93
2018-11-23T14:25:20.277Z,18.07
2018-11-23T14:27:48.956Z,18.90
2018-11-23T14:30:18.758Z,18.47
2018-11-23T14:32:47.046Z,19.23
2018-11-23T14:35:16.510Z,21.00
2018-11-23T14:37:45.132Z,20.93
2018-11-23T14:40:13.954Z,20.10
2018-11-23T14:42:43.182Z,18.67
2018-11-23T14:45:17.644Z,19.37
2018-11-23T14:47:46.078Z,17.03
2018-11-23T14:50:17.221Z,16.17
2018-11-23T14:52:46.309Z,15.57
2018-11-23T14:55:14.718Z,16.60
2018-11-23T14:57:43.723Z,15.03
2018-11-23T15:00:17.802Z,15.90
2018-11-23T15:02:47.278Z,15.07
2018-11-23T15:05:16.443Z,16.53
2018-11-23T15:07:44.771Z,16.60
2018-11-23T15:10:15.534Z,15.77
2018-11-23T15:12:44.630Z,16.53
2018-11-23T15:15:14.377Z,15.87
2018-11-23T15:17:43.752Z,15.23
2018-11-23T15:20:14.620Z,17.53
2018-11-23T15:22:43.034Z,16.13
2018-11-23T15:25:11.104Z,16.60
2018-11-23T15:27:39.937Z,15.23
2018-11-23T15:30:14.521Z,14.47
2018-11-23T15:32:43.245Z,14.07
2018-11-23T15:35:11.608Z,13.80
2018-11-23T15:37:39.842Z,15.20
2018-11-23T15:40:10.823Z,14.20
2018-11-23T15:42:38.970Z,13.37
2018-11-23T15:45:16.257Z,13.27
2018-11-23T15:47:44.189Z,12.50
2018-11-23T15:50:15.034Z,14.00
2018-11-23T15:52:43.582Z,12.93
2018-11-23T15:55:13.958Z,13.97
2018-11-23T15:57:42.746Z,14.07
2018-11-23T16:00:12.560Z,14.77
2018-11-23T16:02:40.587Z,13.20
2018-11-23T16:05:09.784Z,13.30
2018-11-23T16:07:37.931Z,19.13
2018-11-23T16:10:12.953Z,13.30
2018-11-23T16:12:41.231Z,16.90
2018-11-23T16:15:09.633Z,18.53
2018-11-23T16:17:38.298Z,16.20
2018-11-23T16:20:09.651Z,18.03
2018-11-23T16:22:37.578Z,18.57
2018-11-23T16:25:06.142Z,16.43
2018-11-23T16:27:35.236Z,12.83
2018-11-23T16:30:04.402Z,19.53
2018-11-23T16:32:33.339Z,17.48
2018-11-23T16:35:01.266Z,16.47
2018-11-23T16:37:30.051Z,12.40
2018-11-23T16:39:58.537Z,11.87
2018-11-23T16:42:27.830Z,10.70
2018-11-23T16:44:57.228Z,12.00
2018-11-23T16:47:25.281Z,11.57
2018-11-23T16:49:53.308Z,11.90
2018-11-23T16:52:22.039Z,11.00
2018-11-23T16:54:50.871Z,11.47
2018-11-23T16:57:19.074Z,10.17
2018-11-23T16:59:47.991Z,10.00
2018-11-23T17:02:16.286Z,10.20
2018-11-23T17:04:44.746Z,12.13
2018-11-23T17:07:13.171Z,11.23
2018-11-23T17:09:41.106Z,11.50
2018-11-23T17:12:10.163Z,11.80
2018-11-23T17:14:39.111Z,11.43
2018-11-23T17:17:08.355Z,14.07
2018-11-23T17:19:36.527Z,16.07
2018-11-23T17:22:05.766Z,21.10
2018-11-23T17:24:33.969Z,14.83
2018-11-23T17:27:01.904Z,16.67
2018-11-23T17:29:30.091Z,13.87
2018-11-23T17:31:58.250Z,15.37
2018-11-23T17:34:26.186Z,11.30
2018-11-23T17:36:55.099Z,12.67
2018-11-23T17:39:23.278Z,16.30
2018-11-23T17:41:51.435Z,14.60
2018-11-23T17:44:20.159Z,12.63
2018-11-23T17:46:48.882Z,12.50
2018-11-23T17:49:16.823Z,12.40
2018-11-23T17:51:44.746Z,11.70
2018-11-23T17:54:12.672Z,12.60
2018-11-23T17:56:41.323Z,11.57
2018-11-23T17:59:10.417Z,10.77
2018-11-23T18:01:38.643Z,10.80
2018-11-23T18:04:06.811Z,18.87
2018-11-23T18:06:35.015Z,15.77
2018-11-23T18:09:04.330Z,14.40
2018-11-23T18:11:33.497Z,12.93
2018-11-23T18:14:01.947Z,20.87
2018-11-23T18:16:30.373Z,19.07
2018-11-23T18:18:58.600Z,15.57
2018-11-23T18:21:26.786Z,13.93
2018-11-23T18:23:55.119Z,12.70
2018-11-23T18:26:23.142Z,13.57
2018-11-23T18:28:51.311Z,11.97
2018-11-23T18:31:20.042Z,11.57
2018-11-23T18:33:48.289Z,10.60
2018-11-23T18:36:17.056Z,10.03
2018-11-23T18:38:45.290Z,11.43
2018-11-23T18:41:13.530Z,11.10
2018-11-23T18:43:41.747Z,11.70
2018-11-23T18:46:09.670Z,11.30
2018-11-23T18:48:37.990Z,13.03
2018-11-23T18:51:06.980Z,12.43
2018-11-23T18:53:35.002Z,11.00
2018-11-23T18:56:03.050Z,11.17
2018-11-23T18:58:32.063Z,12.13
2018-11-23T19:01:00.023Z,11.23
2018-11-23T19:03:27.935Z,12.80
2018-11-23T19:05:57.239Z,12.00
2018-11-23T19:08:25.399Z,12.23
2018-11-23T19:10:53.542Z,13.47
2018-11-23T19:13:22.201Z,11.73
2018-11-23T19:15:51.248Z,13.83
2018-11-23T19:18:19.491Z,12.27
2018-11-23T19:20:47.643Z,12.73
2018-11-23T19:23:15.790Z,12.37
2018-11-23T19:25:43.742Z,12.27
2018-11-23T19:28:11.924Z,11.87
2018-11-23T19:30:40.120Z,11.63
2018-11-23T19:33:08.632Z,11.70
2018-11-23T19:35:36.796Z,13.57
2018-11-23T19:38:06.225Z,13.73
2018-11-23T19:40:34.182Z,12.40
2018-11-23T19:43:02.735Z,12.23
2018-11-23T19:45:30.667Z,11.73
2018-11-23T19:47:58.811Z,11.80
2018-11-23T19:50:27.684Z,12.43
2018-11-23T19:52:55.882Z,12.50
2018-11-23T19:55:23.805Z,12.73
2018-11-23T19:57:51.790Z,12.70
2018-11-23T20:00:22.132Z,13.73
2018-11-23T20:02:51.451Z,13.73
2018-11-23T20:05:19.785Z,13.47
2018-11-23T20:07:49.959Z,13.37
2018-11-23T20:10:20.061Z,19.37
2018-11-23T20:12:49.621Z,13.30
2018-11-23T20:15:18.578Z,14.77
2018-11-23T20:17:47.560Z,13.40
2018-11-23T20:20:16.010Z,13.97
2018-11-23T20:22:44.568Z,16.07
2018-11-23T20:25:18.394Z,18.27
2018-11-23T20:27:47.354Z,16.73
2018-11-23T20:30:16.371Z,14.13
2018-11-23T20:32:44.818Z,13.10
2018-11-23T20:35:14.151Z,12.90
2018-11-23T20:37:42.320Z,12.27
2018-11-23T20:40:14.683Z,13.33
2018-11-23T20:42:42.859Z,13.50
2018-11-23T20:45:11.197Z,15.27
2018-11-23T20:47:39.770Z,13.90
2018-11-23T20:50:09.439Z,14.00
2018-11-23T20:52:37.505Z,13.13
2018-11-23T20:55:06.754Z,12.70
2018-11-23T20:57:35.518Z,12.73
2018-11-23T21:00:06.463Z,13.23
2018-11-23T21:02:34.681Z,15.00
2018-11-23T21:05:02.872Z,20.60
2018-11-23T21:07:31.639Z,23.60
2018-11-23T21:10:00.029Z,16.27
2018-11-23T21:12:28.330Z,16.67
2018-11-23T21:14:56.502Z,15.10
2018-11-23T21:17:25.534Z,14.53
2018-11-23T21:19:53.533Z,15.77
2018-11-23T21:22:21.463Z,14.00
2018-11-23T21:24:49.399Z,14.43
2018-11-23T21:27:17.544Z,14.97
2018-11-23T21:29:45.718Z,15.83
2018-11-23T21:32:13.871Z,14.47
2018-11-23T21:34:42.041Z,14.53
2018-11-23T21:37:10.208Z,15.43
2018-11-23T21:39:38.226Z,15.03
2018-11-23T21:42:06.379Z,13.67
2018-11-23T21:44:34.997Z,15.27
2018-11-23T21:47:02.917Z,13.50
2018-11-23T21:49:30.855Z,13.77
2018-11-23T21:51:59.122Z,15.13
2018-11-23T21:54:27.284Z,14.80
2018-11-23T21:56:56.119Z,15.10
2018-11-23T21:59:24.330Z,16.63
2018-11-23T22:01:53.055Z,18.10
2018-11-23T22:04:21.285Z,27.13
2018-11-23T22:06:50.042Z,18.77
2018-11-23T22:09:18.793Z,32.90
2018-11-23T22:11:52.311Z,18.73
2018-11-23T22:14:15.541Z,16.97
2018-11-23T22:16:44.332Z,16.13
2018-11-23T22:19:12.572Z,16.13
2018-11-23T22:21:40.729Z,14.77
2018-11-23T22:24:08.867Z,15.23
2018-11-23T22:26:37.096Z,16.80
2018-11-23T22:29:05.813Z,16.60
2018-11-23T22:31:34.111Z,15.07
2018-11-23T22:34:02.621Z,15.23
2018-11-23T22:36:30.819Z,15.00
2018-11-23T22:38:59.003Z,14.57
2018-11-23T22:41:27.252Z,14.87
2018-11-23T22:43:56.135Z,15.63
2018-11-23T22:46:24.430Z,16.07
2018-11-23T22:48:53.118Z,15.27
2018-11-23T22:51:21.506Z,15.67
2018-11-23T22:53:49.636Z,15.70
2018-11-23T22:56:18.376Z,15.53
2018-11-23T22:58:47.428Z,16.03
2018-11-23T23:01:15.695Z,16.10
2018-11-23T23:03:43.875Z,16.63
2018-11-23T23:06:12.989Z,16.77
2018-11-23T23:08:41.772Z,16.27
2018-11-23T23:11:09.961Z,15.30
2018-11-23T23:13:38.292Z,16.07
2018-11-23T23:16:06.946Z,15.30
2018-11-23T23:18:35.006Z,15.67
2018-11-23T23:21:02.943Z,16.85
2018-11-23T23:23:31.103Z,16.07
2018-11-23T23:25:59.275Z,15.53
2018-11-23T23:28:27.439Z,15.50
2018-11-23T23:30:56.082Z,14.70
2018-11-23T23:33:24.310Z,14.70
2018-11-23T23:35:53.395Z,15.30
2018-11-23T23:38:21.591Z,13.30
2018-11-23T23:40:50.363Z,16.77
2018-11-23T23:43:18.551Z,14.20
2018-11-23T23:45:47.820Z,14.70
2018-11-23T23:48:16.229Z,14.50
2018-11-23T23:50:44.194Z,15.67
2018-11-23T23:53:12.364Z,14.90
2018-11-23T23:55:40.530Z,15.90
2018-11-23T23:58:09.142Z,16.70
